AirNav   Air Wisconsin Up To $57,000 Bonus
 
 1036 users online  

2CD8 Children's Hospital Colorado Heliport
Aurora, Colorado, USA

GOING TO AURORA?


FAA INFORMATION EFFECTIVE 08 SEPTEMBER 2022

Location

FAA Identifier: 2CD8
Lat/Long: 39-44-33.0000N 104-50-08.4600W
39-44.550000N 104-50.141000W
39.7425000,-104.8356833
(estimated)
Elevation: 5557 ft. / 1694 m (estimated)
Time zone: UTC -6 (UTC -7 during Standard Time)
Zip code: 80045

Heliport Operations

Heliport use: Private use. Permission required prior to landing
Activation date: 01/2008
Control tower: no
ARTCC: DENVER CENTER
FSS: DENVER FLIGHT SERVICE STATION
Attendance: CONTINUOUS
Wind indicator: lighted
Segmented circle: no
Lights: SS-SR
Beacon: white-green-yellow (heliport)
Operates sunset to sunrise.

Heliport Communications

WX ASOS at DEN (10 nm NE): PHONE 303-342-1920
WX ASOS at APA (10 nm S): PHONE 720-873-2799
WX AWOS-3 at CFO (14 nm E): 119.025 (303-261-9104)
WX AWOS-3 at BJC (16 nm NW): PHONE 720-887-8067
WX AWOS-3 at EIK (19 nm NW): 133.825 (303-604-4339)

Nearby radio navigation aids

VOR radial/distance  VOR name  Freq  Var
DENr234/9.1DENVER VOR/DME117.9008E
FQFr277/10.4FALCON VORTAC116.3011E
DVVr219/13.4MILE HIGH VORTAC114.7008E
BJCr115/17.3JEFFCO VOR/DME115.4011E

Heliport Services

Runway Information

Helipad H1

Dimensions: 55 x 55 ft. / 17 x 17 m
Surface: mats, in good condition
Runway edge lights: PERI
Operational restrictions: HELIPAD MAX GROSS WEIGHT 22,000 LBS.
Latitude: 39-44.550000N
Longitude: 104-50.141000W
Elevation: 5557.0 ft.
Traffic pattern: leftleft

Heliport Ownership and Management from official FAA records

Ownership: Privately-owned
Owner: CHILDREN'S HOSPITAL AT COLORADO
13123 E. 16TH AVE, B050
AURORA, CO 80045
Phone (720) 777-2793
Manager: KATHY HURLEY
13123 E. 16TH AVE, B050
AURORA, CO 80045
Phone (720) 777-2793
OTR CTC: 720-777-3517.

Additional Remarks

FOR CD CTC DENVER APCH AT 303-342-1916.

Instrument Procedures

There are no published instrument procedures at 2CD8.

Some nearby airports with instrument procedures:

KBKF - Buckley Space Force Base (5 nm SE)
KDEN - Denver International Airport (10 nm NE)
KAPA - Centennial Airport (10 nm S)
KCFO - Colorado Air and Space Port Airport (14 nm E)
KBJC - Rocky Mountain Metro Airport (16 nm NW)
KEIK - Erie Municipal Airport (19 nm NW)
 
Loc | Ops | Rwys | IFR | FBO | Links
Com | Nav | Svcs | Stats | Notes

AirBoss

 
Aerial photo
No photo
 
Sectional chart

 
Airport distance calculator
Flying to Children's Hospital Colorado Heliport? Find the distance to fly.

From to 2CD8

Sunrise and sunset
Times for 24-Sep-2022
 Local
(UTC-6)
 Zulu
(UTC)
Morning civil twilight06:2312:23
Sunrise06:5012:50
Sunset18:5300:53
Evening civil twilight19:2001:20

Current date and time
Zulu (UTC)  24-Sep-2022 22:10:00
Local (UTC-6)  24-Sep-2022 16:10:00
 
METAR
KBKF 
4nm E 
242158Z 01008KT 10SM FEW100 28/M04 A3019 RMK AO2A SLP157 T02761044
KDEN 
10nm NE 
242153Z VRB05KT 10SM FEW100 27/M05 A3018 RMK AO2 SLP148 T02671050
KAPA 
11nm S 
242153Z 03008KT 10SM CLR 26/M04 A3020 RMK AO2 SLP173 T02611044
KCFO 
14nm E 
242047Z 34006KT 10SM SKC 29/M09 A3020
KBJC 
17nm NW 
242145Z VRB04KT 10SM SKC 27/M03 A3020
KEIK 
19nm NW 
242155Z AUTO 08007KT 10SM CLR 28/M05 A3016 RMK AO2 T02771047 PWINO
TAF
KBKF 
4nm E 
241700Z 2417/2523 VRB06KT 9999 SKC 510023 QNH3021INS TX24/2422Z TN07/2512Z
KDEN 
10nm NE 
241740Z 2418/2524 27006KT P6SM FEW100 FEW220 FM242000 05007KT P6SM FEW100 FEW220 FM250000 09006KT P6SM FEW220 FM250600 01006KT P6SM FEW220 FM251000 20006KT P6SM SKC FM251700 02007KT P6SM SKC FM252000 07007KT P6SM FEW120
KAPA 
11nm S 
241740Z 2418/2518 VRB05KT P6SM FEW100 FEW220 FM242200 08006KT P6SM FEW220 FM250700 01006KT P6SM FEW220 FM251100 19006KT P6SM SKC FM251700 04006KT P6SM SKC
KBJC 
17nm NW 
241740Z 2418/2518 VRB03KT P6SM SKC FM241900 07007KT P6SM SKC FM250500 35005KT P6SM SKC
NOTAMs
Click for the latest NOTAMs
NOTAMs are issued by the DoD/FAA and will open in a separate window not controlled by AirNav.

 

 
 

Would you like to see your business listed on this page?

 If your business provides an interesting product or service to pilots, flight crews, aircraft, or users of the Children's Hospital Colorado Heliport, you should consider listing it here.  To start the listing process, click on the button below
 
Add a business
 

Other Pages about Children's Hospital Colorado Heliport

Update a link
 
Copyright © AirNav, LLC. All rights reserved. Privacy Policy  Contact